createdAt,value
2022-12-18T00:02:05.125Z,103059.81
2022-12-18T00:04:33.062Z,103054.91
2022-12-18T00:07:00.979Z,103062.06
2022-12-18T00:09:31.161Z,103078.09
2022-12-18T00:14:46.830Z,103079.91
2022-12-18T00:17:15.562Z,103084.31
2022-12-18T00:19:43.636Z,103073.97
2022-12-18T00:22:11.619Z,103068.97
2022-12-18T00:24:39.485Z,103072.72
2022-12-18T00:27:07.380Z,103078.78
2022-12-18T00:29:36.647Z,103070.38
2022-12-18T00:32:04.778Z,103073.09
2022-12-18T00:34:32.763Z,103071.41
2022-12-18T00:37:00.572Z,103073.56
2022-12-18T00:39:28.460Z,103060.16
2022-12-18T00:42:22.077Z,103061.66
2022-12-18T00:44:51.323Z,103063.38
2022-12-18T00:47:19.226Z,103068.81
2022-12-18T00:49:47.157Z,103070.81
2022-12-18T00:52:15.113Z,103071.00
2022-12-18T00:54:43.024Z,103065.06
2022-12-18T00:57:11.053Z,103065.66
2022-12-18T00:59:38.886Z,103060.38
2022-12-18T01:02:08.223Z,103065.63
2022-12-18T01:04:36.984Z,103061.44
2022-12-18T01:07:04.859Z,103070.31
2022-12-18T01:09:32.954Z,103065.44
2022-12-18T01:12:00.807Z,103073.00
2022-12-18T01:14:28.900Z,103072.66
2022-12-18T01:16:56.947Z,103090.19
2022-12-18T01:19:26.237Z,103080.19
2022-12-18T01:21:54.117Z,103087.81
2022-12-18T01:24:22.094Z,103082.03
2022-12-18T01:26:50.556Z,103101.63
2022-12-18T01:29:18.599Z,103094.69
2022-12-18T01:31:46.554Z,103097.63
2022-12-18T01:34:14.473Z,103103.09
2022-12-18T01:36:44.597Z,103106.13
2022-12-18T01:39:14.549Z,103101.75
2022-12-18T01:42:01.807Z,103103.19
2022-12-18T01:45:09.806Z,103104.97
2022-12-18T01:47:40.853Z,103102.56
2022-12-18T01:50:12.499Z,103102.19
2022-12-18T01:52:44.638Z,103107.88
2022-12-18T01:55:14.447Z,103109.63
2022-12-18T01:57:43.359Z,103104.50
2022-12-18T02:00:16.090Z,103109.38
2022-12-18T02:02:46.348Z,103106.28
2022-12-18T02:05:18.685Z,103098.13
2022-12-18T02:08:03.374Z,103110.56
2022-12-18T02:10:41.544Z,103105.34
2022-12-18T02:13:16.644Z,103105.31
2022-12-18T02:15:55.687Z,103109.66
2022-12-18T02:18:30.470Z,103111.03
2022-12-18T02:21:05.945Z,103116.19
2022-12-18T02:23:49.118Z,103112.94
2022-12-18T02:26:22.442Z,103117.72
2022-12-18T02:28:56.671Z,103112.00
2022-12-18T02:31:29.214Z,103114.41
2022-12-18T02:34:00.765Z,103113.78
2022-12-18T02:36:30.905Z,103128.56
2022-12-18T02:39:00.364Z,103127.03
2022-12-18T02:41:31.956Z,103129.47
2022-12-18T02:44:08.508Z,103135.91
2022-12-18T02:46:38.902Z,103138.88
2022-12-18T02:49:24.048Z,103130.34
2022-12-18T02:51:55.630Z,103137.03
2022-12-18T02:54:45.489Z,103135.03
2022-12-18T02:57:24.951Z,103137.63
2022-12-18T03:00:00.569Z,103143.09
2022-12-18T03:02:36.014Z,103132.59
2022-12-18T03:05:09.795Z,103124.38
2022-12-18T03:07:42.200Z,103120.72
2022-12-18T03:10:16.444Z,103123.41
2022-12-18T03:12:54.225Z,103139.59
2022-12-18T03:15:26.988Z,103140.56
2022-12-18T03:18:06.410Z,103137.50
2022-12-18T03:20:37.044Z,103134.41
2022-12-18T03:23:11.992Z,103136.19
2022-12-18T03:25:43.402Z,103132.13
2022-12-18T03:28:16.885Z,103129.50
2022-12-18T03:30:48.292Z,103134.34
2022-12-18T03:33:21.596Z,103135.69
2022-12-18T03:35:52.432Z,103136.13
2022-12-18T03:38:21.235Z,103143.00
2022-12-18T03:41:01.789Z,103129.38
2022-12-18T03:43:47.809Z,103130.75
2022-12-18T03:46:28.522Z,103135.72
2022-12-18T03:49:03.851Z,103141.41
2022-12-18T03:51:40.452Z,103138.25
2022-12-18T03:54:11.979Z,103142.28
2022-12-18T03:56:50.548Z,103142.06
2022-12-18T03:59:21.738Z,103138.91
2022-12-18T04:01:54.191Z,103142.59
2022-12-18T04:04:25.353Z,103141.44
2022-12-18T04:06:54.625Z,103145.00
2022-12-18T04:09:24.880Z,103146.91
2022-12-18T04:11:54.519Z,103149.91
2022-12-18T04:14:24.531Z,103142.69
2022-12-18T04:16:56.130Z,103144.41
2022-12-18T04:19:30.851Z,103153.00
2022-12-18T04:21:59.947Z,103154.63
2022-12-18T04:24:29.153Z,103160.28
2022-12-18T04:27:09.267Z,103153.84
2022-12-18T04:29:45.100Z,103149.06
2022-12-18T04:32:13.061Z,103152.53
2022-12-18T04:34:43.386Z,103157.78
2022-12-18T04:37:11.553Z,103157.13
2022-12-18T04:39:40.766Z,103163.41
2022-12-18T04:42:15.790Z,103158.44
2022-12-18T04:44:45.629Z,103162.88
2022-12-18T04:47:13.562Z,103170.28
2022-12-18T04:49:41.405Z,103163.16
2022-12-18T04:52:09.315Z,103171.41
2022-12-18T04:54:37.189Z,103160.22
2022-12-18T04:57:05.181Z,103173.03
2022-12-18T04:59:33.050Z,103163.75
2022-12-18T05:02:02.343Z,103164.50
2022-12-18T05:04:30.332Z,103176.31
2022-12-18T05:06:58.169Z,103167.03
2022-12-18T05:09:26.037Z,103174.97
2022-12-18T05:11:54.678Z,103175.84
2022-12-18T05:14:22.582Z,103185.31
2022-12-18T05:16:50.452Z,103179.22
2022-12-18T05:19:19.884Z,103186.00
2022-12-18T05:21:47.735Z,103190.25
2022-12-18T05:24:15.652Z,103205.09
2022-12-18T05:26:43.980Z,103200.25
2022-12-18T05:29:13.198Z,103212.38
2022-12-18T05:31:42.745Z,103208.66
2022-12-18T05:34:11.504Z,103211.41
2022-12-18T05:36:41.229Z,103207.69
2022-12-18T05:39:09.649Z,103210.59
2022-12-18T05:41:37.954Z,103211.47
2022-12-18T05:44:06.011Z,103218.75
2022-12-18T05:46:34.294Z,103219.34
2022-12-18T05:49:03.044Z,103218.75
2022-12-18T05:51:30.885Z,103217.84
2022-12-18T05:54:00.086Z,103218.66
2022-12-18T05:56:27.973Z,103220.09
2022-12-18T05:58:56.150Z,103215.50
2022-12-18T06:01:27.858Z,103215.31
2022-12-18T06:03:56.031Z,103218.25
2022-12-18T06:06:27.090Z,103226.59
2022-12-18T06:08:56.174Z,103231.47
2022-12-18T06:11:27.145Z,103233.56
2022-12-18T06:13:59.170Z,103233.66
2022-12-18T06:16:27.934Z,103236.44
2022-12-18T06:18:57.695Z,103232.28
2022-12-18T06:21:25.621Z,103235.28
2022-12-18T06:23:53.558Z,103242.13
2022-12-18T06:26:27.609Z,103237.66
2022-12-18T06:28:57.806Z,103235.09
2022-12-18T06:31:26.625Z,103234.59
2022-12-18T06:33:54.498Z,103247.06
2022-12-18T06:36:22.606Z,103258.34
2022-12-18T06:38:50.470Z,103279.66
2022-12-18T06:41:20.282Z,103275.19
2022-12-18T06:43:48.137Z,103271.53
2022-12-18T06:46:17.781Z,103269.25
2022-12-18T06:48:49.145Z,103277.16
2022-12-18T06:51:19.104Z,103279.75
2022-12-18T06:53:46.999Z,103295.00
2022-12-18T06:56:14.996Z,103294.44
2022-12-18T06:58:43.019Z,103295.53
2022-12-18T07:01:13.016Z,103309.28
2022-12-18T07:03:44.021Z,103301.13
2022-12-18T07:06:17.056Z,103294.44
2022-12-18T07:08:44.933Z,103289.53
2022-12-18T07:11:13.174Z,103282.44
2022-12-18T07:13:41.401Z,103280.59
2022-12-18T07:16:17.121Z,103289.78
2022-12-18T07:18:47.970Z,103296.91
2022-12-18T07:21:17.800Z,103285.13
2022-12-18T07:23:48.821Z,103287.66
2022-12-18T07:26:19.299Z,103285.63
2022-12-18T07:28:47.235Z,103284.22
2022-12-18T07:31:17.058Z,103281.63
2022-12-18T07:33:47.053Z,103295.22
2022-12-18T07:36:16.462Z,103304.53
2022-12-18T07:38:44.467Z,103295.59
2022-12-18T07:41:13.910Z,103286.53
2022-12-18T07:43:43.505Z,103290.25
2022-12-18T07:46:13.359Z,103291.19
2022-12-18T07:48:41.533Z,103284.78
2022-12-18T07:51:11.550Z,103286.06
2022-12-18T07:53:39.789Z,103279.63
2022-12-18T07:58:58.089Z,103284.69
2022-12-18T08:01:26.369Z,103277.63
2022-12-18T08:03:54.408Z,103291.56
2022-12-18T08:06:24.249Z,103289.88
2022-12-18T08:08:53.664Z,103294.16
2022-12-18T08:11:21.666Z,103288.97
2022-12-18T08:13:49.665Z,103290.88
2022-12-18T08:16:18.330Z,103295.53
2022-12-18T08:18:46.333Z,103293.13
2022-12-18T08:21:16.977Z,103297.78
2022-12-18T08:23:47.170Z,103302.44
2022-12-18T08:26:15.972Z,103304.22
2022-12-18T08:28:44.292Z,103303.91
2022-12-18T08:31:12.766Z,103306.97
2022-12-18T08:33:41.605Z,103311.44
2022-12-18T08:36:11.935Z,103313.25
2022-12-18T08:38:40.276Z,103307.78
2022-12-18T08:41:12.330Z,103310.06
2022-12-18T08:43:57.797Z,103316.75
2022-12-18T08:46:27.462Z,103321.31
2022-12-18T08:48:56.958Z,103318.09
2022-12-18T08:51:24.993Z,103317.75
2022-12-18T08:53:52.830Z,103324.00
2022-12-18T08:56:22.082Z,103332.31
2022-12-18T08:58:52.941Z,103333.13
2022-12-18T09:01:21.518Z,103331.75
2022-12-18T09:03:49.865Z,103332.91
2022-12-18T09:06:18.698Z,103337.47
2022-12-18T09:08:47.096Z,103335.13
2022-12-18T09:11:16.665Z,103342.28
2022-12-18T09:13:46.029Z,103339.25
2022-12-18T09:16:13.981Z,103352.44
2022-12-18T09:18:42.462Z,103357.56
2022-12-18T09:21:12.127Z,103350.41
2022-12-18T09:23:40.102Z,103341.09
2022-12-18T09:26:07.990Z,103341.38
2022-12-18T09:28:36.151Z,103336.03
2022-12-18T09:31:09.528Z,103348.31
2022-12-18T09:33:37.652Z,103347.41
2022-12-18T09:36:08.261Z,103346.66
2022-12-18T09:38:37.363Z,103337.75
2022-12-18T09:41:08.486Z,103331.81
2022-12-18T09:43:43.208Z,103330.75
2022-12-18T09:46:17.883Z,103327.81
2022-12-18T09:48:50.214Z,103326.94
2022-12-18T09:51:21.699Z,103330.44
2022-12-18T09:53:54.481Z,103321.84
2022-12-18T09:56:23.937Z,103315.56
2022-12-18T09:58:57.284Z,103317.88
2022-12-18T10:01:36.300Z,103302.81
2022-12-18T10:04:11.452Z,103292.16
2022-12-18T10:06:47.918Z,103282.41
2022-12-18T10:09:26.382Z,103282.03
2022-12-18T10:12:05.102Z,103287.97
2022-12-18T10:14:40.544Z,103288.78
2022-12-18T10:17:20.310Z,103290.16
2022-12-18T10:19:53.474Z,103282.66
2022-12-18T10:22:31.058Z,103281.00
2022-12-18T10:25:06.673Z,103288.97
2022-12-18T10:27:34.954Z,103288.94
2022-12-18T10:30:10.113Z,103277.06
2022-12-18T10:32:39.665Z,103278.56
2022-12-18T10:35:17.679Z,103281.28
2022-12-18T10:38:08.581Z,103265.78
2022-12-18T10:40:52.084Z,103273.28
2022-12-18T10:43:24.010Z,103257.69
2022-12-18T10:46:15.514Z,103261.19
2022-12-18T10:48:54.837Z,103268.44
2022-12-18T10:51:25.618Z,103263.88
2022-12-18T10:53:56.756Z,103239.84
2022-12-18T10:56:26.916Z,103245.50
2022-12-18T10:59:00.248Z,103239.31
2022-12-18T11:01:28.348Z,103236.97
2022-12-18T11:04:10.660Z,103227.53
2022-12-18T11:06:55.891Z,103230.72
2022-12-18T11:09:25.467Z,103234.59
2022-12-18T11:11:55.542Z,103234.22
2022-12-18T11:14:30.834Z,103230.13
2022-12-18T11:19:55.151Z,103231.97
2022-12-18T11:22:27.428Z,103239.03
2022-12-18T11:25:30.346Z,103242.56
2022-12-18T11:27:51.562Z,103240.03
2022-12-18T11:30:26.135Z,103238.78
2022-12-18T11:32:59.100Z,103231.28
2022-12-18T11:35:32.930Z,103234.84
2022-12-18T11:38:06.759Z,103226.97
2022-12-18T11:40:41.334Z,103231.19
2022-12-18T11:43:15.317Z,103226.88
2022-12-18T11:45:49.613Z,103239.88
2022-12-18T11:48:23.616Z,103249.69
2022-12-18T11:50:55.261Z,103260.03
2022-12-18T11:53:23.976Z,103254.59
2022-12-18T11:56:03.019Z,103260.41
2022-12-18T11:58:44.811Z,103269.28
2022-12-18T12:01:25.051Z,103272.91
2022-12-18T12:04:13.262Z,103279.00
2022-12-18T12:06:52.783Z,103282.13
2022-12-18T12:09:28.309Z,103270.47
2022-12-18T12:12:22.970Z,103272.81
2022-12-18T12:14:59.188Z,103280.47
2022-12-18T12:17:36.826Z,103284.66
2022-12-18T12:20:18.590Z,103273.56
2022-12-18T12:23:00.709Z,103269.38
2022-12-18T12:25:42.586Z,103272.75
2022-12-18T12:28:25.378Z,103275.66
2022-12-18T12:31:08.326Z,103288.59
2022-12-18T12:33:50.294Z,103296.63
2022-12-18T12:36:27.736Z,103299.78
2022-12-18T12:54:54.131Z,103255.59
2022-12-18T12:57:25.478Z,103236.81
2022-12-18T13:00:03.042Z,103236.09
2022-12-18T13:02:37.823Z,103232.22
2022-12-18T13:05:17.981Z,103230.19
2022-12-18T13:07:52.607Z,103224.72
2022-12-18T13:10:38.183Z,103231.78
2022-12-18T13:13:09.368Z,103233.22
2022-12-18T13:15:41.703Z,103242.00
2022-12-18T13:18:19.546Z,103244.59
2022-12-18T13:20:55.299Z,103234.50
2022-12-18T13:23:45.156Z,103237.84
2022-12-18T13:26:35.268Z,103239.22
2022-12-18T13:29:05.237Z,103232.84
2022-12-18T13:32:09.990Z,103236.63
2022-12-18T13:34:38.422Z,103233.75
2022-12-18T13:37:42.899Z,103225.00
2022-12-18T13:40:58.708Z,103220.41
2022-12-18T13:43:33.203Z,103225.91
2022-12-18T13:46:04.637Z,103229.34
2022-12-18T13:48:35.999Z,103225.88
2022-12-18T13:51:07.735Z,103211.97
2022-12-18T13:53:41.546Z,103216.41
2022-12-18T13:56:09.852Z,103219.31
2022-12-18T13:58:39.893Z,103225.75
2022-12-18T14:01:23.841Z,103210.31
2022-12-18T14:03:51.882Z,103197.16
2022-12-18T14:06:19.930Z,103187.63
2022-12-18T14:08:49.204Z,103203.34
2022-12-18T14:11:25.886Z,103192.88
2022-12-18T14:13:56.339Z,103200.09
2022-12-18T14:16:25.094Z,103194.78
2022-12-18T14:19:02.232Z,103200.16
2022-12-18T14:21:40.381Z,103201.34
2022-12-18T14:24:17.564Z,103187.31
2022-12-18T14:26:48.403Z,103181.59
2022-12-18T14:29:25.299Z,103181.00
2022-12-18T14:32:23.561Z,103154.03
2022-12-18T14:34:53.252Z,103148.16
2022-12-18T14:37:24.267Z,103148.84
2022-12-18T14:40:01.263Z,103156.88
2022-12-18T14:42:33.359Z,103157.41
2022-12-18T14:45:41.354Z,103155.31
2022-12-18T14:48:11.889Z,103148.66
2022-12-18T14:50:41.711Z,103141.44
2022-12-18T14:53:24.899Z,103139.88
2022-12-18T14:55:53.269Z,103148.38
2022-12-18T14:58:21.179Z,103143.28
2022-12-18T15:00:50.569Z,103145.03
2022-12-18T15:03:21.324Z,103155.72
2022-12-18T15:05:50.099Z,103180.03
2022-12-18T15:08:33.128Z,103186.69
2022-12-18T15:11:01.402Z,103184.06
2022-12-18T15:13:29.694Z,103189.75
2022-12-18T15:16:04.161Z,103180.34
2022-12-18T15:18:37.074Z,103184.44
2022-12-18T15:21:11.742Z,103171.56
2022-12-18T15:23:48.941Z,103172.72
2022-12-18T15:26:18.363Z,103176.25
2022-12-18T15:28:48.198Z,103168.94
2022-12-18T15:31:30.232Z,103172.13
2022-12-18T15:34:16.229Z,103164.59
2022-12-18T15:36:44.072Z,103166.84
2022-12-18T15:39:14.434Z,103187.75
2022-12-18T15:42:02.548Z,103193.63
2022-12-18T15:44:29.648Z,103190.75
2022-12-18T15:46:59.068Z,103185.25
2022-12-18T15:49:26.971Z,103180.59
2022-12-18T15:51:56.966Z,103178.84
2022-12-18T15:54:38.908Z,103173.56
2022-12-18T15:57:24.821Z,103176.84
2022-12-18T15:59:53.651Z,103188.69
2022-12-18T16:02:24.654Z,103177.72
2022-12-18T16:04:53.344Z,103175.16
2022-12-18T16:07:24.989Z,103179.31
2022-12-18T16:09:54.129Z,103153.38
2022-12-18T16:12:25.803Z,103155.16
2022-12-18T16:14:54.077Z,103151.22
2022-12-18T16:17:23.354Z,103150.94
2022-12-18T16:19:51.293Z,103162.75
2022-12-18T16:22:24.114Z,103161.78
2022-12-18T16:24:53.635Z,103161.47
2022-12-18T16:27:22.064Z,103156.00
2022-12-18T16:29:50.398Z,103147.06
2022-12-18T16:32:20.910Z,103153.19
2022-12-18T16:34:50.279Z,103139.47
2022-12-18T16:37:18.377Z,103141.22
2022-12-18T16:39:46.462Z,103140.25
2022-12-18T16:42:17.457Z,103131.19
2022-12-18T16:44:46.845Z,103120.19
2022-12-18T16:47:15.601Z,103130.75
2022-12-18T16:49:45.235Z,103127.50
2022-12-18T16:52:15.478Z,103135.97
2022-12-18T16:54:43.704Z,103132.63
2022-12-18T16:57:14.259Z,103135.13
2022-12-18T16:59:42.302Z,103131.66
2022-12-18T17:02:15.597Z,103129.91
2022-12-18T17:04:45.715Z,103134.84
2022-12-18T17:07:15.698Z,103134.97
2022-12-18T17:09:43.554Z,103143.75
2022-12-18T17:12:11.445Z,103142.78
2022-12-18T17:14:39.553Z,103137.81
2022-12-18T17:17:23.971Z,103140.25
2022-12-18T17:19:52.920Z,103145.19
2022-12-18T17:22:24.182Z,103142.25
2022-12-18T17:24:52.052Z,103135.06
2022-12-18T17:27:19.869Z,103137.88
2022-12-18T17:29:48.812Z,103129.63
2022-12-18T17:32:17.178Z,103126.63
2022-12-18T17:34:45.221Z,103137.47
2022-12-18T17:37:13.158Z,103140.53
2022-12-18T17:39:43.034Z,103135.50
2022-12-18T17:42:14.973Z,103131.03
2022-12-18T17:44:44.084Z,103125.69
2022-12-18T17:47:13.172Z,103125.56
2022-12-18T17:49:41.404Z,103128.59
2022-12-18T17:52:09.235Z,103126.69
2022-12-18T17:54:39.679Z,103125.09
2022-12-18T17:57:09.223Z,103108.81
2022-12-18T17:59:37.084Z,103124.91
2022-12-18T18:02:05.277Z,103111.72
2022-12-18T18:04:33.386Z,103108.47
2022-12-18T18:07:01.260Z,103108.69
2022-12-18T18:09:29.293Z,103099.63
2022-12-18T18:12:26.115Z,103102.09
2022-12-18T18:14:55.598Z,103082.66
2022-12-18T18:17:23.450Z,103085.91
2022-12-18T18:19:51.294Z,103084.13
2022-12-18T18:22:20.091Z,103084.00
2022-12-18T18:24:48.102Z,103074.47
2022-12-18T18:27:16.655Z,103076.16
2022-12-18T18:29:44.852Z,103073.88
2022-12-18T18:32:14.123Z,103057.25
2022-12-18T18:34:42.173Z,103050.19
2022-12-18T18:37:11.082Z,103061.84
2022-12-18T18:39:39.219Z,103051.47
2022-12-18T18:42:07.294Z,103063.38
2022-12-18T18:44:35.408Z,103057.16
2022-12-18T18:47:03.583Z,103042.78
2022-12-18T18:49:35.561Z,103049.19
2022-12-18T18:52:03.512Z,103041.00
2022-12-18T18:54:31.424Z,103044.28
2022-12-18T18:59:47.923Z,103025.88
2022-12-18T19:02:17.735Z,103015.59
2022-12-18T19:04:47.298Z,103022.31
2022-12-18T19:07:18.476Z,103017.94
2022-12-18T19:09:54.140Z,103010.31
2022-12-18T19:12:39.989Z,102997.25
2022-12-18T19:15:09.243Z,103005.56
2022-12-18T19:17:37.541Z,102998.00
2022-12-18T19:20:08.501Z,102992.66
2022-12-18T19:22:39.691Z,102993.41
2022-12-18T19:25:09.588Z,103000.34
2022-12-18T19:27:40.124Z,102993.75
2022-12-18T19:30:09.429Z,102994.16
2022-12-18T19:32:37.316Z,102989.41
2022-12-18T19:35:07.256Z,102991.63
2022-12-18T19:37:35.974Z,102989.00
2022-12-18T19:40:06.667Z,102990.84
2022-12-18T19:42:40.639Z,102986.50
2022-12-18T19:45:09.238Z,102990.03
2022-12-18T19:47:36.991Z,102985.88
2022-12-18T19:50:05.308Z,102997.66
2022-12-18T19:52:34.861Z,102988.03
2022-12-18T19:55:02.672Z,102980.56
2022-12-18T19:57:32.410Z,102996.19
2022-12-18T20:00:00.336Z,102983.44
2022-12-18T20:02:28.410Z,102991.88
2022-12-18T20:04:56.410Z,102981.47
2022-12-18T20:07:24.236Z,102984.88
2022-12-18T20:10:01.417Z,102977.06
2022-12-18T20:12:33.466Z,102977.25
2022-12-18T20:15:01.537Z,102971.06
2022-12-18T20:17:30.090Z,102966.63
2022-12-18T20:19:59.184Z,102960.16
2022-12-18T20:22:27.089Z,102948.25
2022-12-18T20:24:56.434Z,102934.66
2022-12-18T20:27:24.508Z,102933.84
2022-12-18T20:29:52.414Z,102949.97
2022-12-18T20:32:20.602Z,102953.59
2022-12-18T20:34:49.042Z,102952.59
2022-12-18T20:37:17.622Z,102944.94
2022-12-18T20:39:47.085Z,102930.28
2022-12-18T20:42:16.841Z,102934.94
2022-12-18T20:44:45.692Z,102939.72
2022-12-18T20:47:13.829Z,102935.19
2022-12-18T20:49:42.686Z,102922.31
2022-12-18T20:52:13.557Z,102928.66
2022-12-18T20:54:41.423Z,102925.34
2022-12-18T20:57:09.378Z,102928.69
2022-12-18T20:59:40.900Z,102927.94
2022-12-18T21:02:14.684Z,102924.75
2022-12-18T21:04:42.948Z,102919.94
2022-12-18T21:07:11.241Z,102922.81
2022-12-18T21:09:39.445Z,102918.72
2022-12-18T21:12:29.416Z,102925.88
2022-12-18T21:15:02.757Z,102921.47
2022-12-18T21:17:30.760Z,102909.94
2022-12-18T21:20:02.461Z,102909.28
2022-12-18T21:22:30.609Z,102912.16
2022-12-18T21:24:58.481Z,102904.69
2022-12-18T21:27:26.388Z,102895.03
2022-12-18T21:29:54.221Z,102910.69
2022-12-18T21:32:24.720Z,102903.53
2022-12-18T21:34:56.747Z,102907.03
2022-12-18T21:37:24.724Z,102914.69
2022-12-18T21:39:52.670Z,102905.63
2022-12-18T21:42:37.989Z,102913.22
2022-12-18T21:45:06.510Z,102914.19
2022-12-18T21:47:35.792Z,102919.31
2022-12-18T21:50:03.620Z,102920.25
2022-12-18T21:52:32.742Z,102924.41
2022-12-18T21:55:08.515Z,102925.44
2022-12-18T21:57:37.589Z,102918.34
2022-12-18T22:00:06.961Z,102926.28
2022-12-18T22:02:42.251Z,102910.00
2022-12-18T22:05:10.655Z,102901.47
2022-12-18T22:07:39.533Z,102897.97
2022-12-18T22:10:08.445Z,102899.22
2022-12-18T22:12:43.381Z,102894.41
2022-12-18T22:15:14.345Z,102901.28
2022-12-18T22:17:51.203Z,102893.38
2022-12-18T22:20:23.367Z,102875.16
2022-12-18T22:22:52.526Z,102861.22
2022-12-18T22:25:20.406Z,102863.38
2022-12-18T22:28:08.213Z,102866.53
2022-12-18T22:30:35.125Z,102868.75
2022-12-18T22:33:05.119Z,102861.09
2022-12-18T22:35:33.019Z,102862.06
2022-12-18T22:38:01.940Z,102854.13
2022-12-18T22:40:30.377Z,102848.63
2022-12-18T22:42:58.239Z,102833.81
2022-12-18T22:45:26.474Z,102836.47
2022-12-18T22:47:54.482Z,102825.50
2022-12-18T22:50:23.748Z,102816.69
2022-12-18T22:52:51.571Z,102817.66
2022-12-18T22:55:19.436Z,102811.09
2022-12-18T22:57:49.063Z,102823.44
2022-12-18T23:00:21.008Z,102805.03
2022-12-18T23:02:59.314Z,102801.03
2022-12-18T23:05:31.056Z,102799.91
2022-12-18T23:07:59.506Z,102793.25
2022-12-18T23:10:28.458Z,102781.47
2022-12-18T23:12:56.285Z,102779.00
2022-12-18T23:15:28.314Z,102775.66
2022-12-18T23:17:58.423Z,102774.69
2022-12-18T23:20:27.312Z,102762.53
2022-12-18T23:22:57.990Z,102754.44
2022-12-18T23:25:25.923Z,102752.63
2022-12-18T23:27:53.772Z,102740.38
2022-12-18T23:30:21.756Z,102737.19
2022-12-18T23:32:49.552Z,102754.09
2022-12-18T23:35:18.203Z,102750.94
2022-12-18T23:38:03.674Z,102746.50
2022-12-18T23:40:32.988Z,102743.13
2022-12-18T23:43:01.213Z,102742.50
2022-12-18T23:45:29.230Z,102729.47
2022-12-18T23:47:57.042Z,102718.88
2022-12-18T23:50:29.483Z,102712.41
2022-12-18T23:53:02.527Z,102717.13
2022-12-18T23:55:38.509Z,102712.91
2022-12-18T23:58:06.673Z,102711.66
